This is the latest recevied weather packets stored in our database for station/object KB3AWQ. If no packets are shown the sender has not sent any weather packets the latest 10 day(s).
| Time | Temp. | Humidity | Pressure | Rain* | Wind** | Luminosity | Snow |
|---|---|---|---|---|---|---|---|
| 1777472667 | 12.78° C | 84% | 1013.4 hPa | 0 mm | - | 93 W/m² | - |
| 1777472368 | 12.78° C | 84% | 1013.4 hPa | 0 mm | - | 88 W/m² | - |
| 1777472068 | 12.78° C | 84% | 1013.5 hPa | 0 mm | - | 87 W/m² | - |
| 1777471768 | 12.78° C | 84% | 1013.4 hPa | 0 mm | - | 90 W/m² | - |
| 1777471468 | 12.78° C | 84% | 1013.4 hPa | 0 mm | - | 83 W/m² | - |
| 1777471167 | 12.78° C | 84% | 1013.4 hPa | 0 mm | - | 70 W/m² | - |
| 1777470867 | 12.78° C | 84% | 1013.4 hPa | 0 mm | - | 71 W/m² | - |
| 1777470568 | 12.78° C | 84% | 1013.4 hPa | 0 mm | - | 74 W/m² | - |
| 1777470269 | 12.78° C | 84% | 1013.5 hPa | 0 mm | - | 77 W/m² | - |
| 1777469968 | 12.78° C | 84% | 1013.7 hPa | 0 mm | - | 62 W/m² | - |
| 1777469668 | 12.78° C | 84% | 1013.7 hPa | 0 mm | - | 69 W/m² | - |
| 1777469367 | 12.78° C | 84% | 1013.7 hPa | 0 mm | - | 55 W/m² | - |
| 1777469067 | 12.78° C | 84% | 1013.3 hPa | 0 mm | - | 68 W/m² | - |
| 1777468769 | 12.78° C | 84% | 1013.3 hPa | 0 mm | - | 86 W/m² | - |
| 1777468468 | 12.78° C | 84% | 1013.4 hPa | 0 mm | - | 64 W/m² | - |
| 1777468168 | 12.78° C | 84% | 1013.4 hPa | 0 mm | - | 64 W/m² | - |
| 1777467867 | 12.78° C | 84% | 1013.5 hPa | 0 mm | - | 80 W/m² | - |
| 1777467566 | 12.78° C | 84% | 1013.5 hPa | 0 mm | - | 80 W/m² | - |
| 1777467276 | 12.78° C | 84% | 1013.7 hPa | 0 mm | - | 66 W/m² | - |
| 1777466968 | 12.78° C | 84% | 1013.4 hPa | 0 mm | - | 81 W/m² | - |
| 1777466667 | 12.78° C | 84% | 1013.4 hPa | 0 mm | - | 74 W/m² | - |
| 1777466370 | 12.78° C | 84% | 1013.8 hPa | 0 mm | - | 60 W/m² | - |
| 1777466068 | 12.78° C | 84% | 1014 hPa | 0 mm | - | 50 W/m² | - |
| 1777465767 | 12.78° C | 84% | 1013.9 hPa | 0 mm | - | 50 W/m² | - |
| 1777465467 | 12.22° C | 84% | 1013.8 hPa | 0 mm | - | 55 W/m² | - |
* Rain latest hour (hover to see other rain measurements)
** Current wind speed in m/s (hover to see current wind gust speed)